createdAt,value
2022-08-01T00:00:06.316Z,90.27
2022-08-01T00:02:36.588Z,90.35
2022-08-01T00:05:03.337Z,90.22
2022-08-01T00:07:29.984Z,90.33
2022-08-01T00:09:56.422Z,90.10
2022-08-01T00:12:22.877Z,90.79
2022-08-01T00:14:49.385Z,90.57
2022-08-01T00:17:16.057Z,90.55
2022-08-01T00:19:42.959Z,91.07
2022-08-01T00:22:10.100Z,90.42
2022-08-01T00:24:36.768Z,90.97
2022-08-01T00:27:03.501Z,91.40
2022-08-01T00:30:12.531Z,90.65
2022-08-01T00:32:16.861Z,90.91
2022-08-01T00:34:43.348Z,91.25
2022-08-01T00:37:09.936Z,91.59
2022-08-01T00:39:40.726Z,91.45
2022-08-01T00:42:09.068Z,90.93
2022-08-01T00:44:36.061Z,91.38
2022-08-01T00:47:03.812Z,91.36
2022-08-01T00:49:30.546Z,91.54
2022-08-01T00:51:59.447Z,91.27
2022-08-01T00:54:27.029Z,91.70
2022-08-01T00:56:54.796Z,92.08
2022-08-01T00:59:23.281Z,91.84
2022-08-01T01:01:50.511Z,91.84
2022-08-01T01:04:18.090Z,92.02
2022-08-01T01:07:02.633Z,92.81
2022-08-01T01:10:10.268Z,93.25
2022-08-01T01:13:02.822Z,92.92
2022-08-01T01:15:41.274Z,92.89
2022-08-01T01:18:25.338Z,93.24
2022-08-01T01:21:07.049Z,93.26
2022-08-01T01:23:58.873Z,93.38
2022-08-01T01:26:43.122Z,93.69
2022-08-01T01:29:12.852Z,92.71
2022-08-01T01:31:55.751Z,93.21
2022-08-01T01:34:24.708Z,93.20
2022-08-01T01:36:56.110Z,93.11
2022-08-01T01:39:25.354Z,93.14
2022-08-01T01:41:55.867Z,92.93
2022-08-01T01:44:22.793Z,92.58
2022-08-01T01:46:52.302Z,92.75
2022-08-01T01:49:23.829Z,92.92
2022-08-01T01:52:03.302Z,92.87
2022-08-01T01:54:34.792Z,92.84
2022-08-01T01:57:04.989Z,92.84
2022-08-01T01:59:35.462Z,93.01
2022-08-01T02:02:06.337Z,93.14
2022-08-01T02:04:36.701Z,92.94
2022-08-01T02:07:05.239Z,93.07
2022-08-01T02:09:32.991Z,93.32
2022-08-01T02:12:07.942Z,93.76
2022-08-01T02:14:36.779Z,93.90
2022-08-01T02:17:05.070Z,94.45
2022-08-01T02:19:34.548Z,94.29
2022-08-01T02:22:15.085Z,95.08
2022-08-01T02:24:56.042Z,95.30
2022-08-01T02:27:26.786Z,95.49
2022-08-01T02:29:55.385Z,95.22
2022-08-01T02:32:28.083Z,95.42
2022-08-01T02:34:58.008Z,96.26
2022-08-01T02:37:27.575Z,95.55
2022-08-01T02:39:55.736Z,95.88
2022-08-01T02:42:26.274Z,96.06
2022-08-01T02:44:54.956Z,96.31
2022-08-01T02:47:24.171Z,96.24
2022-08-01T02:49:53.989Z,96.22
2022-08-01T02:52:22.651Z,96.76
2022-08-01T02:54:52.466Z,96.70
2022-08-01T02:57:21.609Z,97.03
2022-08-01T02:59:50.530Z,97.06
2022-08-01T03:02:18.994Z,97.12
2022-08-01T03:04:46.899Z,97.06
2022-08-01T03:07:14.323Z,97.67
2022-08-01T03:09:45.558Z,97.82
2022-08-01T03:12:26.319Z,98.00
2022-08-01T03:14:56.425Z,97.32
2022-08-01T03:17:27.219Z,97.82
2022-08-01T03:19:55.126Z,97.63
2022-08-01T03:22:24.449Z,97.75
2022-08-01T03:24:54.250Z,97.60
2022-08-01T03:27:23.336Z,97.88
2022-08-01T03:29:52.217Z,97.78
2022-08-01T03:32:20.757Z,97.82
2022-08-01T03:34:47.799Z,97.79
2022-08-01T03:37:25.787Z,98.06
2022-08-01T03:40:01.390Z,98.05
2022-08-01T03:42:34.664Z,98.08
2022-08-01T03:45:13.536Z,98.13
2022-08-01T03:47:44.933Z,98.18
2022-08-01T03:50:14.670Z,97.97
2022-08-01T03:52:44.690Z,98.07
2022-08-01T03:55:13.862Z,97.94
2022-08-01T03:57:41.158Z,97.66
2022-08-01T04:00:09.876Z,97.79
2022-08-01T04:02:37.890Z,97.83
2022-08-01T04:05:05.546Z,97.95
2022-08-01T04:07:33.525Z,97.96
2022-08-01T04:10:00.198Z,98.14
2022-08-01T04:12:26.711Z,97.85
2022-08-01T04:14:53.189Z,97.83
2022-08-01T04:17:19.870Z,97.82
2022-08-01T04:19:47.131Z,97.93
2022-08-01T04:22:16.053Z,98.00
2022-08-01T04:24:45.563Z,97.84
2022-08-01T04:27:50.120Z,97.86
2022-08-01T04:30:08.619Z,97.37
2022-08-01T04:32:38.946Z,97.21
2022-08-01T04:35:22.886Z,97.40
2022-08-01T04:38:02.760Z,97.56
2022-08-01T04:40:30.502Z,97.16
2022-08-01T04:42:57.009Z,96.77
2022-08-01T04:45:24.737Z,97.34
2022-08-01T04:47:53.037Z,97.81
2022-08-01T04:50:22.789Z,97.63
2022-08-01T04:52:49.409Z,97.55
2022-08-01T04:55:18.185Z,97.72
2022-08-01T04:57:47.554Z,97.79
2022-08-01T05:00:15.314Z,97.66
2022-08-01T05:02:41.848Z,97.51
2022-08-01T05:05:09.390Z,97.26
2022-08-01T05:07:44.185Z,97.03
2022-08-01T05:10:13.102Z,97.75
2022-08-01T05:12:39.864Z,97.54
2022-08-01T05:15:11.817Z,97.47
2022-08-01T05:17:43.319Z,97.51
2022-08-01T05:20:11.388Z,97.69
2022-08-01T05:22:38.807Z,98.32
2022-08-01T05:25:06.016Z,98.42
2022-08-01T05:27:33.909Z,98.52
2022-08-01T05:30:00.688Z,98.84
2022-08-01T05:32:28.351Z,99.64
2022-08-01T05:34:54.926Z,98.83
2022-08-01T05:37:21.622Z,98.79
2022-08-01T05:39:48.295Z,99.21
2022-08-01T05:42:15.171Z,99.27
2022-08-01T05:44:41.700Z,99.23
2022-08-01T05:47:08.141Z,99.42
2022-08-01T05:49:34.864Z,99.71
2022-08-01T05:52:03.131Z,99.08
2022-08-01T05:54:30.338Z,98.96
2022-08-01T05:57:00.533Z,99.10
2022-08-01T05:59:27.406Z,99.14
2022-08-01T06:01:54.324Z,98.94
2022-08-01T06:04:20.903Z,98.46
2022-08-01T06:06:47.396Z,99.15
2022-08-01T06:09:14.170Z,99.21
2022-08-01T06:11:40.949Z,98.91
2022-08-01T06:14:07.514Z,99.67
2022-08-01T06:16:34.106Z,99.65
2022-08-01T06:19:00.650Z,99.53
2022-08-01T06:21:27.321Z,98.96
2022-08-01T06:23:54.164Z,98.59
2022-08-01T06:26:21.382Z,99.35
2022-08-01T06:28:48.098Z,99.15
2022-08-01T06:31:15.765Z,99.31
2022-08-01T06:33:42.666Z,99.37
2022-08-01T06:36:10.328Z,99.72
2022-08-01T06:38:37.369Z,99.12
2022-08-01T06:41:03.942Z,100.00
2022-08-01T06:43:30.516Z,99.79
2022-08-01T06:45:57.054Z,100.00
2022-08-01T06:48:23.989Z,100.00
2022-08-01T06:51:08.700Z,100.00
2022-08-01T06:53:37.076Z,99.76
2022-08-01T06:56:04.124Z,100.00
2022-08-01T06:58:31.801Z,100.00
2022-08-01T07:00:59.431Z,100.00
2022-08-01T07:03:27.899Z,100.00
2022-08-01T07:06:13.638Z,100.00
2022-08-01T07:08:41.851Z,100.00
2022-08-01T07:11:08.687Z,99.83
2022-08-01T07:13:36.778Z,100.00
2022-08-01T07:16:11.156Z,100.00
2022-08-01T07:18:37.775Z,100.00
2022-08-01T07:21:04.948Z,100.00
2022-08-01T07:23:34.046Z,100.00
2022-08-01T07:26:04.897Z,100.00
2022-08-01T07:28:32.094Z,99.80
2022-08-01T07:30:58.757Z,99.67
2022-08-01T07:33:25.247Z,99.32
2022-08-01T07:35:51.820Z,99.25
2022-08-01T07:38:18.780Z,99.00
2022-08-01T07:40:45.492Z,98.71
2022-08-01T07:43:12.103Z,98.45
2022-08-01T07:45:38.844Z,98.41
2022-08-01T07:48:12.055Z,98.43
2022-08-01T07:50:38.712Z,98.24
2022-08-01T07:53:05.568Z,99.02
2022-08-01T07:55:32.504Z,98.49
2022-08-01T07:57:59.042Z,97.82
2022-08-01T08:00:25.855Z,97.41
2022-08-01T08:02:52.589Z,98.36
2022-08-01T08:05:59.031Z,98.43
2022-08-01T08:08:07.016Z,97.85
2022-08-01T08:10:34.276Z,96.49
2022-08-01T08:13:02.608Z,97.51
2022-08-01T08:15:30.042Z,96.52
2022-08-01T08:17:56.899Z,96.19
2022-08-01T08:20:26.032Z,96.10
2022-08-01T08:22:53.159Z,95.31
2022-08-01T08:25:20.280Z,95.06
2022-08-01T08:27:48.165Z,94.40
2022-08-01T08:30:15.324Z,94.04
2022-08-01T08:32:42.887Z,94.19
2022-08-01T08:35:11.851Z,94.24
2022-08-01T08:37:47.360Z,93.49
2022-08-01T08:40:15.752Z,92.71
2022-08-01T08:42:42.772Z,92.61
2022-08-01T08:45:12.154Z,90.58
2022-08-01T08:47:40.819Z,91.09
2022-08-01T08:50:08.273Z,90.81
2022-08-01T08:52:37.898Z,90.81
2022-08-01T08:55:05.703Z,90.14
2022-08-01T08:57:32.522Z,89.08
2022-08-01T08:59:59.394Z,89.21
2022-08-01T09:02:26.191Z,89.59
2022-08-01T09:04:53.157Z,86.49
2022-08-01T09:07:19.838Z,88.18
2022-08-01T09:09:49.170Z,86.73
2022-08-01T09:12:21.366Z,89.63
2022-08-01T09:14:51.256Z,87.39
2022-08-01T09:17:18.537Z,88.04
2022-08-01T09:19:54.871Z,88.20
2022-08-01T09:22:25.011Z,86.47
2022-08-01T09:25:10.675Z,90.37
2022-08-01T09:27:44.130Z,83.51
2022-08-01T09:30:19.267Z,84.07
2022-08-01T09:33:06.181Z,84.93
2022-08-01T09:35:43.607Z,79.68
2022-08-01T09:38:30.157Z,81.39
2022-08-01T09:41:02.225Z,81.66
2022-08-01T09:43:31.543Z,79.04
2022-08-01T09:45:59.418Z,78.99
2022-08-01T09:48:28.737Z,81.23
2022-08-01T09:51:04.473Z,77.83
2022-08-01T09:53:52.622Z,82.57
2022-08-01T09:56:22.071Z,78.87
2022-08-01T09:58:58.458Z,79.00
2022-08-01T10:01:37.520Z,79.42
2022-08-01T10:04:25.368Z,85.73
2022-08-01T10:07:04.534Z,76.46
2022-08-01T10:09:36.083Z,74.68
2022-08-01T10:12:14.999Z,72.20
2022-08-01T10:14:46.156Z,74.31
2022-08-01T10:17:19.596Z,74.90
2022-08-01T10:19:51.272Z,71.11
2022-08-01T10:22:19.332Z,70.42
2022-08-01T10:24:48.433Z,70.68
2022-08-01T10:27:24.486Z,73.38
2022-08-01T10:30:14.105Z,72.23
2022-08-01T10:32:50.451Z,70.04
2022-08-01T10:35:45.916Z,71.71
2022-08-01T10:38:05.963Z,73.11
2022-08-01T10:40:33.265Z,74.18
2022-08-01T10:43:02.737Z,72.08
2022-08-01T10:45:30.778Z,74.24
2022-08-01T10:48:11.960Z,77.02
2022-08-01T10:50:42.861Z,70.24
2022-08-01T10:53:23.048Z,73.71
2022-08-01T10:56:02.576Z,75.61
2022-08-01T10:58:42.941Z,74.58
2022-08-01T11:01:26.217Z,77.20
2022-08-01T11:04:02.160Z,74.52
2022-08-01T11:06:34.748Z,71.71
2022-08-01T11:09:02.651Z,69.90
2022-08-01T11:11:37.403Z,68.33
2022-08-01T11:14:12.782Z,70.05
2022-08-01T11:16:41.677Z,70.49
2022-08-01T11:19:09.480Z,67.88
2022-08-01T11:21:57.066Z,73.90
2022-08-01T11:24:50.710Z,72.99
2022-08-01T11:27:23.507Z,66.14
2022-08-01T11:30:13.388Z,72.52
2022-08-01T11:33:11.203Z,65.75
2022-08-01T11:35:58.772Z,63.10
2022-08-01T11:38:29.139Z,63.07
2022-08-01T11:41:18.768Z,67.95
2022-08-01T11:44:06.601Z,66.79
2022-08-01T11:46:58.038Z,65.94
2022-08-01T11:49:41.985Z,58.00
2022-08-01T11:52:12.813Z,56.57
2022-08-01T11:54:42.553Z,56.19
2022-08-01T11:57:11.832Z,56.19
2022-08-01T11:59:57.969Z,58.82
2022-08-01T12:02:35.419Z,57.68
2022-08-01T12:05:12.983Z,57.08
2022-08-01T12:07:43.329Z,56.32
2022-08-01T12:10:16.468Z,58.51
2022-08-01T12:12:49.497Z,54.03
2022-08-01T12:15:16.953Z,56.00
2022-08-01T12:17:58.563Z,57.67
2022-08-01T12:20:32.514Z,57.40
2022-08-01T12:23:08.371Z,55.62
2022-08-01T12:25:40.210Z,55.72
2022-08-01T12:28:09.280Z,55.28
2022-08-01T12:30:37.956Z,53.73
2022-08-01T12:33:06.696Z,53.58
2022-08-01T12:35:34.694Z,53.57
2022-08-01T12:38:14.555Z,55.76
2022-08-01T12:40:47.432Z,55.67
2022-08-01T12:43:27.223Z,52.89
2022-08-01T12:45:57.463Z,52.00
2022-08-01T12:48:25.471Z,51.49
2022-08-01T12:50:54.009Z,51.10
2022-08-01T12:53:22.249Z,49.81
2022-08-01T12:55:58.525Z,48.12
2022-08-01T12:58:32.794Z,48.05
2022-08-01T13:01:11.722Z,48.08
2022-08-01T13:03:39.119Z,44.29
2022-08-01T13:06:17.553Z,49.70
2022-08-01T13:08:45.296Z,48.73
2022-08-01T13:11:15.834Z,47.15
2022-08-01T13:13:45.629Z,48.14
2022-08-01T13:16:23.478Z,49.87
2022-08-01T13:18:59.280Z,51.25
2022-08-01T13:21:52.876Z,52.58
2022-08-01T13:24:16.815Z,51.27
2022-08-01T13:26:45.195Z,49.31
2022-08-01T13:29:13.887Z,47.48
2022-08-01T13:31:41.829Z,44.56
2022-08-01T13:34:09.170Z,46.00
2022-08-01T13:36:36.405Z,46.02
2022-08-01T13:39:23.126Z,46.90
2022-08-01T13:41:49.846Z,44.19
2022-08-01T13:44:16.495Z,43.36
2022-08-01T13:46:49.481Z,44.07
2022-08-01T13:49:17.749Z,44.87
2022-08-01T13:51:46.829Z,46.32
2022-08-01T13:54:13.477Z,47.18
2022-08-01T13:56:40.014Z,46.33
2022-08-01T13:59:07.541Z,47.91
2022-08-01T14:01:35.152Z,45.90
2022-08-01T14:04:05.232Z,45.62
2022-08-01T14:06:32.565Z,46.33
2022-08-01T14:08:59.142Z,47.02
2022-08-01T14:11:36.913Z,45.71
2022-08-01T14:14:04.780Z,45.97
2022-08-01T14:16:35.269Z,46.87
2022-08-01T14:19:03.956Z,45.83
2022-08-01T14:21:30.732Z,42.02
2022-08-01T14:23:57.182Z,42.78
2022-08-01T14:26:23.703Z,43.13
2022-08-01T14:28:50.170Z,43.50
2022-08-01T14:31:16.658Z,44.90
2022-08-01T14:33:43.136Z,44.26
2022-08-01T14:36:30.746Z,44.51
2022-08-01T14:39:00.443Z,45.71
2022-08-01T14:41:28.033Z,46.93
2022-08-01T14:43:54.589Z,42.95
2022-08-01T14:46:21.318Z,43.02
2022-08-01T14:48:47.816Z,44.63
2022-08-01T14:51:14.317Z,42.09
2022-08-01T14:53:47.070Z,40.20
2022-08-01T14:56:20.201Z,41.21
2022-08-01T14:58:46.645Z,39.70
2022-08-01T15:01:15.552Z,41.26
2022-08-01T15:03:42.217Z,40.25
2022-08-01T15:06:10.535Z,39.78
2022-08-01T15:08:37.016Z,39.67
2022-08-01T15:11:03.510Z,37.41
2022-08-01T15:13:30.052Z,37.35
2022-08-01T15:16:00.051Z,39.70
2022-08-01T15:18:28.466Z,37.84
2022-08-01T15:20:56.097Z,38.63
2022-08-01T15:23:22.602Z,37.59
2022-08-01T15:25:50.127Z,38.68
2022-08-01T15:28:17.211Z,36.99
2022-08-01T15:30:43.823Z,34.73
2022-08-01T15:33:10.335Z,32.72
2022-08-01T15:35:36.949Z,31.13
2022-08-01T15:38:03.803Z,30.34
2022-08-01T15:40:30.460Z,31.89
2022-08-01T15:42:56.995Z,35.74
2022-08-01T15:48:10.667Z,38.50
2022-08-01T15:50:39.295Z,39.42
2022-08-01T15:53:07.289Z,38.94
2022-08-01T15:55:38.258Z,37.59
2022-08-01T15:58:05.938Z,39.59
2022-08-01T16:00:32.983Z,40.75
2022-08-01T16:03:05.603Z,42.55
2022-08-01T16:05:32.107Z,42.23
2022-08-01T16:08:01.408Z,43.83
2022-08-01T16:10:29.045Z,42.22
2022-08-01T16:12:55.529Z,38.75
2022-08-01T16:15:36.159Z,33.11
2022-08-01T16:18:05.374Z,33.42
2022-08-01T16:20:31.880Z,34.84
2022-08-01T16:22:58.427Z,38.43
2022-08-01T16:25:25.051Z,40.58
2022-08-01T16:27:51.897Z,40.63
2022-08-01T16:30:21.412Z,40.27
2022-08-01T16:32:53.832Z,42.33
2022-08-01T16:35:32.689Z,41.45
2022-08-01T16:38:06.131Z,41.69
2022-08-01T16:40:46.306Z,39.70
2022-08-01T16:43:20.032Z,38.91
2022-08-01T16:45:46.835Z,40.88
2022-08-01T16:48:21.265Z,42.33
2022-08-01T16:50:52.966Z,43.12
2022-08-01T16:53:20.653Z,44.64
2022-08-01T16:55:49.542Z,43.86
2022-08-01T16:58:27.350Z,44.65
2022-08-01T17:00:56.848Z,45.16
2022-08-01T17:03:52.408Z,45.66
2022-08-01T17:06:10.701Z,45.62
2022-08-01T17:08:37.178Z,45.76
2022-08-01T17:11:15.955Z,44.28
2022-08-01T17:13:42.959Z,45.65
2022-08-01T17:16:10.073Z,46.52
2022-08-01T17:18:39.420Z,46.94
2022-08-01T17:21:06.240Z,43.87
2022-08-01T17:23:33.610Z,45.17
2022-08-01T17:26:00.295Z,46.50
2022-08-01T17:28:27.026Z,46.98
2022-08-01T17:30:53.649Z,47.16
2022-08-01T17:33:20.417Z,47.13
2022-08-01T17:35:47.051Z,46.47
2022-08-01T17:38:13.513Z,47.06
2022-08-01T17:40:40.995Z,47.42
2022-08-01T17:43:07.966Z,46.89
2022-08-01T17:45:39.497Z,46.33
2022-08-01T17:48:17.822Z,47.77
2022-08-01T17:50:45.776Z,47.83
2022-08-01T17:53:13.054Z,47.96
2022-08-01T17:55:53.406Z,47.25
2022-08-01T17:58:49.615Z,46.75
2022-08-01T18:01:11.086Z,48.60
2022-08-01T18:03:41.269Z,49.02
2022-08-01T18:06:08.815Z,47.85
2022-08-01T18:08:35.861Z,48.56
2022-08-01T18:11:02.421Z,48.09
2022-08-01T18:13:29.457Z,48.74
2022-08-01T18:15:56.877Z,47.94
2022-08-01T18:18:33.550Z,49.20
2022-08-01T18:21:03.899Z,49.06
2022-08-01T18:23:33.659Z,49.01
2022-08-01T18:26:02.356Z,48.26
2022-08-01T18:28:34.086Z,46.94
2022-08-01T18:31:11.695Z,48.57
2022-08-01T18:33:38.145Z,46.89
2022-08-01T18:36:05.670Z,48.15
2022-08-01T18:38:33.432Z,48.88
2022-08-01T18:41:01.834Z,48.75
2022-08-01T18:43:28.760Z,49.07
2022-08-01T18:45:57.368Z,49.20
2022-08-01T18:48:24.277Z,50.12
2022-08-01T18:50:51.027Z,49.36
2022-08-01T18:53:18.589Z,48.62
2022-08-01T18:55:48.095Z,49.92
2022-08-01T18:58:14.989Z,49.73
2022-08-01T19:00:42.148Z,50.67
2022-08-01T19:03:11.189Z,50.78
2022-08-01T19:05:40.106Z,50.39
2022-08-01T19:08:07.933Z,50.38
2022-08-01T19:10:43.715Z,50.72
2022-08-01T19:13:10.180Z,50.39
2022-08-01T19:15:36.709Z,50.52
2022-08-01T19:18:04.176Z,50.98
2022-08-01T19:20:31.227Z,50.93
2022-08-01T19:22:58.189Z,51.39
2022-08-01T19:25:24.746Z,51.77
2022-08-01T19:27:51.993Z,51.75
2022-08-01T19:30:19.245Z,51.09
2022-08-01T19:32:47.399Z,51.47
2022-08-01T19:35:16.792Z,52.15
2022-08-01T19:37:47.641Z,52.79
2022-08-01T19:40:26.732Z,52.92
2022-08-01T19:42:54.948Z,53.37
2022-08-01T19:45:22.107Z,53.98
2022-08-01T19:47:56.779Z,54.94
2022-08-01T19:50:28.456Z,54.79
2022-08-01T19:53:04.777Z,54.49
2022-08-01T19:55:39.690Z,55.20
2022-08-01T19:58:28.274Z,55.02
2022-08-01T20:00:55.662Z,55.34
2022-08-01T20:03:23.248Z,55.76
2022-08-01T20:05:51.421Z,55.94
2022-08-01T20:08:19.525Z,55.91
2022-08-01T20:10:48.421Z,56.47
2022-08-01T20:13:14.920Z,55.74
2022-08-01T20:15:43.712Z,56.02
2022-08-01T20:18:10.358Z,56.15
2022-08-01T20:20:40.459Z,56.18
2022-08-01T20:23:18.379Z,56.33
2022-08-01T20:25:49.494Z,56.97
2022-08-01T20:28:21.730Z,57.13
2022-08-01T20:30:54.566Z,57.52
2022-08-01T20:33:21.118Z,57.66
2022-08-01T20:35:53.426Z,58.14
2022-08-01T20:38:25.232Z,58.49
2022-08-01T20:40:58.742Z,59.48
2022-08-01T20:43:27.482Z,59.43
2022-08-01T20:45:57.191Z,59.97
2022-08-01T20:48:26.441Z,59.88
2022-08-01T20:51:12.184Z,59.83
2022-08-01T20:53:42.915Z,60.03
2022-08-01T20:56:50.000Z,59.98
2022-08-01T20:59:54.891Z,59.92
2022-08-01T21:02:31.834Z,59.90
2022-08-01T21:05:04.773Z,60.02
2022-08-01T21:08:02.887Z,60.27
2022-08-01T21:10:32.370Z,60.89
2022-08-01T21:13:06.358Z,61.03
2022-08-01T21:15:38.934Z,61.23
2022-08-01T21:21:50.290Z,61.04
2022-08-01T21:24:19.137Z,60.89
2022-08-01T21:26:48.161Z,60.84
2022-08-01T21:29:15.367Z,61.08
2022-08-01T21:31:42.124Z,61.55
2022-08-01T21:34:09.483Z,61.60
2022-08-01T21:36:36.659Z,61.67
2022-08-01T21:39:06.309Z,62.54
2022-08-01T21:41:56.500Z,62.50
2022-08-01T21:44:28.561Z,62.26
2022-08-01T21:47:00.090Z,62.95
2022-08-01T21:49:27.317Z,62.24
2022-08-01T21:51:59.811Z,62.90
2022-08-01T21:54:58.681Z,62.38
2022-08-01T21:57:52.062Z,62.34
2022-08-01T22:00:25.817Z,62.70
2022-08-01T22:03:14.313Z,62.14
2022-08-01T22:05:50.261Z,62.66
2022-08-01T22:08:29.566Z,62.68
2022-08-01T22:11:04.119Z,61.98
2022-08-01T22:13:30.841Z,62.15
2022-08-01T22:15:58.742Z,62.77
2022-08-01T22:18:27.366Z,62.32
2022-08-01T22:20:54.908Z,62.69
2022-08-01T22:23:22.825Z,62.87
2022-08-01T22:25:54.190Z,62.70
2022-08-01T22:28:22.091Z,61.96
2022-08-01T22:30:52.382Z,61.80
2022-08-01T22:33:19.869Z,61.60
2022-08-01T22:35:48.679Z,61.46
2022-08-01T22:38:18.003Z,62.60
2022-08-01T22:41:01.779Z,62.01
2022-08-01T22:43:49.940Z,62.77
2022-08-01T22:46:39.396Z,62.76
2022-08-01T22:49:23.212Z,62.83
2022-08-01T22:51:58.246Z,63.35
2022-08-01T22:54:58.144Z,62.73
2022-08-01T22:57:30.100Z,63.03
2022-08-01T23:00:01.735Z,63.55
2022-08-01T23:02:33.516Z,63.83
2022-08-01T23:05:04.590Z,63.66
2022-08-01T23:07:41.333Z,63.75
2022-08-01T23:10:08.849Z,64.19
2022-08-01T23:12:37.358Z,63.79
2022-08-01T23:15:04.958Z,63.83
2022-08-01T23:17:32.083Z,63.95
2022-08-01T23:20:05.186Z,64.08
2022-08-01T23:22:34.394Z,64.24
2022-08-01T23:25:06.281Z,64.67
2022-08-01T23:27:51.801Z,64.15
2022-08-01T23:30:28.317Z,64.18
2022-08-01T23:32:55.319Z,64.21
2022-08-01T23:35:22.358Z,64.37
2022-08-01T23:37:51.075Z,64.15
2022-08-01T23:40:18.987Z,63.87
2022-08-01T23:42:45.848Z,63.80
2022-08-01T23:45:12.290Z,64.03
2022-08-01T23:47:38.704Z,63.75
2022-08-01T23:50:07.746Z,63.94
2022-08-01T23:52:36.765Z,63.75
2022-08-01T23:55:15.853Z,63.83
2022-08-01T23:57:43.159Z,63.47
